Wolf Creek Pass, CO

4:14 AM MDT on March 24, 2017 (GMT -0600)
Wolf Creek Pass | | Change Station
Active Advisory: Winter Weather Advisory

Elev 11759 ft 37.45 °N, 106.80 °W | Updated 21 minutes ago

Overcast
Overcast
21 °F
Feels Like 9 °F
N
13
Wind Variable Wind from NW
Gusts 23 mph

Today
High -- | Low -- °F
--% Chance of Precip.
Yesterday
High -- | Low -- °F
Precip. -- in
Pressure 29.84 in
Visibility 1.0 miles
Clouds Overcast 1700 ft
Windchill 9 °F
Dew Point 21 °F
Humidity 100%
Rainfall 0.00 in
Snow Depth Not available.
7:04 AM 7:23 PM
Waning Crescent, 16% visible
METAR KCPW 240953Z AUTO 32011G20KT 1SM -SN OVC017 M06/M06 A2984 RMK AO2 VIS 1/4V3
Pressure 29.84 in
Visibility 1.0 miles
Clouds Overcast 1700 ft
Windchill 9 °F
Dew Point 21 °F
Humidity 100%
Rainfall 0.00 in
Snow Depth Not available.
7:04 AM 7:23 PM
Waning Crescent, 16% visible
METAR KCPW 240953Z AUTO 32011G20KT 1SM -SN OVC017 M06/M06 A2984 RMK AO2 VIS 1/4V3

Get Your Daily Forecast Email!

Thanks for signing up!

Be on the lookout for a verification email in your inbox.

You'll start receiving severe weather alerts in your inbox..

×

10-Day Weather Forecast

Almanac

Astronomy

Mar. 24, 2017 Rise Set
Actual Time
Civil Twilight
Nautical Twilight
Astronomical Twilight
Moon
Length of Visible Light
Length of Day
Tomorrow will be .
, % of the Moon is Illuminated

Today's Extremes

State Highs State Lows

Community

WunderPhotos

Upload Photos

1,962,540 photos uploaded!

WunderBlog® & News

Nearby

Air Quality

  Air Quality AQ Index Pollutant
Not available.

Snow Depth

Station Depth Elevation

Earthquake Activity

City Distance Mag. Time & Date
Minimum magnitude displayed is 2.5.

Earthquake Activity

City Distance Mag. Time & Date
Minimum magnitude displayed is 2.5.

Coastal Water Temperatures

Place Temperature

Stations

Nearby Weather Stations

Station Location Temp. Windchill Dew Point Humidity Wind Precip. Elev Updated Type
                   

Watches & Warnings

Winter Weather Advisory
Issued: 4:05 AM MDT Mar. 24, 2017 – National Weather Service

... Winter Weather Advisory remains in effect until 9 am MDT this
morning...

* location... the eastern San Juan Mountains above 10000 feet,
the La Garita Mountains above 10000 feet, the Sawatch Range
above 11000 feet and the Mosquito Range above 11000 feet.

* Cause and timing... an intense storm over southeast Colorado this
morning will move slowly into Kansas this afternoon.

* Snow accumulation... 4 to 8 inches.

* Wind... southwest 15 to 30 mph today. Northwest at 20 to 40
gusting to 50 mph overnight.

* Impact... conditions will be hazardous due to periods of heavy,
blowing snow and poor visibilities. Slushy or snow covered
roads and poor visibilities will make travel difficult.

Precautionary/preparedness actions...

A Winter Weather Advisory for snow and blowing snow means that
visibilities will be limited due to a combination of falling and
blowing snow. Use caution when traveling, especially in open
areas.



Hodanish